Time;durP1;ratioP1;P1;durP2;ratioP2;P2;SDS_P1;SDS_P2;PMS_P1;PMS_P2;Temp;Humidity;BMP_temperature;BMP_pressure;BME280_temperature;BME280_humidity;BME280_pressure;Samples;Min_cycle;Max_cycle;Signal;HPM_P1;HPM_P2
2022/08/28 00:01:04;;;;;;;;;;;;;;;27.32;51.41;99463.19;4339946;33;37901;-79
2022/08/28 00:03:32;;;;;;;;;;;;;;;27.09;52.63;99472.44;4327556;32;38657;-85
2022/08/28 00:05:59;;;;;;;;;;;;;;;27.24;50.98;99455.66;4347589;32;37438;-80
2022/08/28 00:08:28;;;;;;;;;;;;;;;27.16;51.20;99457.91;4340213;33;37939;-84
2022/08/28 00:10:55;;;;;;;;;;;;;;;27.02;51.75;99466.63;4344266;32;38031;-83
2022/08/28 00:13:24;;;;;;;;;;;;;;;27.08;51.71;99457.47;4330911;33;38784;-81
2022/08/28 00:15:53;;;;;;;;;;;;;;;27.01;52.15;99437.53;4327248;33;37027;-80
2022/08/28 00:18:21;;;;;;;;;;;;;;;27.16;51.52;99441.97;4340956;32;38759;-83
2022/08/28 00:20:48;;;;;;;;;;;;;;;26.98;52.11;99449.16;4333915;33;37940;-83
2022/08/28 00:23:16;;;;;;;;;;;;;;;27.03;51.60;99467.53;4340089;33;38093;-80
2022/08/28 00:25:44;;;;;;;;;;;;;;;26.79;52.29;99475.94;4340088;33;37083;-83
2022/08/28 00:28:12;;;;;;;;;;;;;;;26.84;52.07;99484.50;4342330;32;38443;-84
2022/08/28 00:30:51;;;;;;;;;;;;;;;26.81;52.19;99479.38;4325857;32;38424;-82
2022/08/28 00:33:21;;;;;;;;;;;;;;;26.90;51.17;99478.84;4355145;32;38377;-82
2022/08/28 00:35:48;;;;;;;;;;;;;;;26.96;50.63;99487.38;4355129;32;36893;-84
2022/08/28 00:38:18;;;;;;;;;;;;;;;26.81;51.20;99479.38;4341222;32;39025;-84
2022/08/28 00:40:47;;;;;;;;;;;;;;;26.76;51.22;99476.09;4354719;32;38359;-80
2022/08/28 00:43:34;;;;;;;;;;;;;;;26.58;52.17;99467.37;4341701;32;38714;-83
2022/08/28 00:46:02;;;;;;;;;;;;;;;26.76;51.33;99465.47;4355021;32;36660;-83
2022/08/28 00:48:29;;;;;;;;;;;;;;;26.71;50.87;99462.25;4361836;32;37856;-82
2022/08/28 00:53:43;;;;;;;;;;;;;;;26.42;51.52;99461.19;4370815;32;38819;-80
2022/08/28 00:56:11;;;;;;;;;;;;;;;26.48;51.72;99454.66;4368379;32;36946;-81
2022/08/28 00:58:40;;;;;;;;;;;;;;;26.60;51.31;99448.69;4370084;32;37820;-79
2022/08/28 01:01:08;;;;;;;;;;;;;;;26.51;51.66;99441.25;4371377;32;38067;-82
2022/08/28 01:03:35;;;;;;;;;;;;;;;26.42;52.05;99435.50;4369250;32;39396;-82
2022/08/28 01:06:02;;;;;;;;;;;;;;;26.38;52.33;99441.03;4369272;32;37042;-82
2022/08/28 01:08:31;;;;;;;;;;;;;;;26.49;51.84;99440.50;4371352;32;37963;-82
2022/08/28 01:10:59;;;;;;;;;;;;;;;26.34;52.49;99443.03;4369415;32;38417;-79
2022/08/28 01:13:26;;;;;;;;;;;;;;;26.38;52.33;99438.38;4355737;32;38815;-80
2022/08/28 01:15:53;;;;;;;;;;;;;;;26.29;52.87;99442.44;4357310;32;38230;-79
2022/08/28 01:18:20;;;;;;;;;;;;;;;26.24;53.23;99447.13;4368022;32;38425;-78
2022/08/28 01:20:50;;;;;;;;;;;;;;;26.30;52.41;99446.78;4369784;32;39388;-80
2022/08/28 01:23:28;;;;;;;;;;;;;;;26.49;51.68;99451.13;4372483;32;40869;-84
2022/08/28 01:25:56;;;;;;;;;;;;;;;26.44;51.37;99460.13;4361273;32;36542;-80
2022/08/28 01:28:23;;;;;;;;;;;;;;;26.36;50.46;99465.03;4367599;32;38429;-82
2022/08/28 01:30:50;;;;;;;;;;;;;;;26.42;49.89;99467.34;4369438;32;38408;-81
2022/08/28 01:33:18;;;;;;;;;;;;;;;26.49;49.57;99477.66;4355975;32;38282;-83
2022/08/28 01:35:54;;;;;;;;;;;;;;;26.39;49.61;99480.78;4369204;32;36559;-81
2022/08/28 01:38:21;;;;;;;;;;;;;;;26.26;49.51;99485.06;4371674;32;38261;-82
2022/08/28 01:40:56;;;;;;;;;;;;;;;26.13;49.46;99486.62;4370104;32;38112;-81
2022/08/28 01:43:25;;;;;;;;;;;;;;;26.05;50.08;99478.25;4375916;32;38554;-79
2022/08/28 01:45:54;;;;;;;;;;;;;;;26.16;49.87;99475.84;4384773;32;36357;-78
2022/08/28 01:48:23;;;;;;;;;;;;;;;25.94;50.78;99482.34;4385678;32;37979;-80
2022/08/28 01:50:51;;;;;;;;;;;;;;;26.20;49.66;99475.63;4386607;32;37875;-82
2022/08/28 01:53:22;;;;;;;;;;;;;;;26.09;50.19;99469.19;4386076;32;40500;-83
2022/08/28 01:55:51;;;;;;;;;;;;;;;26.05;50.49;99470.28;4384827;32;36432;-80
2022/08/28 01:58:20;;;;;;;;;;;;;;;25.87;51.33;99470.31;4382912;32;38696;-81
2022/08/28 02:00:47;;;;;;;;;;;;;;;25.83;52.05;99468.78;4388189;32;39166;-78
2022/08/28 02:03:15;;;;;;;;;;;;;;;26.07;51.01;99465.75;4370678;32;37242;-79
2022/08/28 02:05:42;;;;;;;;;;;;;;;25.89;51.39;99457.84;4375716;32;37096;-78
2022/08/28 02:08:09;;;;;;;;;;;;;;;26.04;51.04;99444.69;4376249;32;37506;-79
2022/08/28 02:10:37;;;;;;;;;;;;;;;25.94;51.22;99441.66;4383817;32;38234;-81
2022/08/28 02:13:05;;;;;;;;;;;;;;;26.02;50.98;99435.97;4383045;32;39605;-80
2022/08/28 02:15:33;;;;;;;;;;;;;;;25.80;51.56;99434.41;4384383;32;36949;-81
2022/08/28 02:18:00;;;;;;;;;;;;;;;25.77;51.64;99426.62;4385835;32;39230;-84
2022/08/28 02:20:28;;;;;;;;;;;;;;;25.74;51.58;99432.09;4384045;32;38210;-77
2022/08/28 02:22:56;;;;;;;;;;;;;;;25.34;53.34;99434.19;4383129;32;39260;-82
2022/08/28 02:25:24;;;;;;;;;;;;;;;25.66;52.39;99429.00;4384058;32;36842;-79
2022/08/28 02:27:51;;;;;;;;;;;;;;;25.70;52.26;99419.94;4383987;32;38149;-82
2022/08/28 02:30:18;;;;;;;;;;;;;;;25.82;52.09;99418.47;4385518;32;37547;-84
2022/08/28 02:32:46;;;;;;;;;;;;;;;25.85;51.92;99419.16;4382265;32;38707;-78
2022/08/28 02:35:15;;;;;;;;;;;;;;;25.97;51.06;99423.81;4384191;32;36341;-81
2022/08/28 02:37:43;;;;;;;;;;;;;;;25.70;52.41;99419.94;4383807;32;40256;-82
2022/08/28 02:40:14;;;;;;;;;;;;;;;25.72;51.85;99421.59;4382503;32;38313;-83
2022/08/28 02:42:41;;;;;;;;;;;;;;;25.68;52.38;99421.81;4382573;32;40120;-82
2022/08/28 02:45:10;;;;;;;;;;;;;;;25.83;52.36;99421.03;4383896;32;37086;-80
2022/08/28 02:47:38;;;;;;;;;;;;;;;25.58;53.78;99425.88;4384129;32;38307;-82
2022/08/28 02:50:06;;;;;;;;;;;;;;;25.71;53.15;99442.88;4385226;32;36085;-83
2022/08/28 02:52:34;;;;;;;;;;;;;;;25.16;54.88;99451.84;4383555;32;37970;-79
2022/08/28 02:55:02;;;;;;;;;;;;;;;25.64;53.18;99463.53;4386583;32;37749;-83
2022/08/28 02:57:30;;;;;;;;;;;;;;;25.54;53.26;99466.75;4385487;32;39128;-81
2022/08/28 02:59:58;;;;;;;;;;;;;;;25.65;52.57;99453.78;4385816;32;38483;-82
2022/08/28 03:02:25;;;;;;;;;;;;;;;25.63;53.21;99455.69;4384390;32;38810;-79
2022/08/28 03:04:54;;;;;;;;;;;;;;;25.39;53.90;99453.34;4372911;32;36096;-83
2022/08/28 03:07:21;;;;;;;;;;;;;;;25.38;53.42;99456.94;4387203;32;39036;-83
2022/08/28 03:09:49;;;;;;;;;;;;;;;25.63;53.47;99460.97;4385384;32;38704;-81
2022/08/28 03:12:16;;;;;;;;;;;;;;;25.29;54.26;99468.00;4385467;32;38869;-82
2022/08/28 03:14:43;;;;;;;;;;;;;;;25.58;53.17;99452.41;4384897;32;36270;-79
2022/08/28 03:17:11;;;;;;;;;;;;;;;25.46;53.61;99454.75;4385486;32;37987;-79
2022/08/28 03:19:38;;;;;;;;;;;;;;;25.45;53.97;99452.16;4386847;32;38111;-82
2022/08/28 03:22:05;;;;;;;;;;;;;;;25.38;53.77;99446.34;4384310;32;38640;-81
2022/08/28 03:24:33;;;;;;;;;;;;;;;25.36;53.82;99456.12;4385044;32;36921;-82
2022/08/28 03:27:00;;;;;;;;;;;;;;;25.40;53.61;99451.53;4378939;32;37984;-80
2022/08/28 03:29:27;;;;;;;;;;;;;;;25.26;54.13;99446.94;4385540;32;39972;-81
2022/08/28 03:31:55;;;;;;;;;;;;;;;25.37;53.38;99449.94;4384987;32;38594;-80
2022/08/28 03:34:22;;;;;;;;;;;;;;;25.47;53.38;99451.16;4385609;32;37012;-78
2022/08/28 03:36:49;;;;;;;;;;;;;;;25.38;53.75;99445.47;4385630;32;38544;-81
2022/08/28 03:39:17;;;;;;;;;;;;;;;25.46;53.45;99441.50;4382504;32;38249;-82
2022/08/28 03:41:44;;;;;;;;;;;;;;;25.23;53.87;99447.97;4383813;32;39349;-78
2022/08/28 03:44:11;;;;;;;;;;;;;;;25.48;53.63;99442.25;4385421;32;36828;-79
2022/08/28 03:46:39;;;;;;;;;;;;;;;25.34;53.92;99447.44;4396031;32;38492;-78
2022/08/28 03:49:06;;;;;;;;;;;;;;;25.44;53.01;99440.72;4388548;32;38850;-81
2022/08/28 03:51:33;;;;;;;;;;;;;;;25.44;52.73;99446.03;4385525;32;38473;-83
2022/08/28 03:54:01;;;;;;;;;;;;;;;25.47;52.77;99435.25;4385055;32;37137;-80
2022/08/28 03:56:29;;;;;;;;;;;;;;;25.64;52.32;99433.53;4387708;32;36554;-78
2022/08/28 03:58:58;;;;;;;;;;;;;;;25.63;52.08;99429.16;4385144;32;38807;-82
2022/08/28 04:01:25;;;;;;;;;;;;;;;25.66;52.37;99429.84;4384962;32;38773;-78
2022/08/28 04:03:53;;;;;;;;;;;;;;;25.70;52.29;99425.25;4386423;32;37943;-78
2022/08/28 04:06:23;;;;;;;;;;;;;;;25.66;52.15;99423.72;4396720;32;38138;-83
2022/08/28 04:08:50;;;;;;;;;;;;;;;25.71;52.47;99421.66;4386522;32;38895;-79
2022/08/28 04:11:17;;;;;;;;;;;;;;;25.59;52.45;99424.94;4381528;32;39433;-80
2022/08/28 04:13:44;;;;;;;;;;;;;;;25.70;52.18;99430.56;4384055;32;36432;-82
2022/08/28 04:16:15;;;;;;;;;;;;;;;25.61;52.37;99425.72;4384920;32;38134;-79
2022/08/28 04:18:43;;;;;;;;;;;;;;;25.56;52.56;99422.44;4383105;32;38171;-78
2022/08/28 04:21:12;;;;;;;;;;;;;;;25.73;51.90;99425.94;4387139;32;39414;-82
2022/08/28 04:23:41;;;;;;;;;;;;;;;25.75;51.78;99424.06;4383412;32;35997;-80
2022/08/28 04:26:10;;;;;;;;;;;;;;;25.62;52.23;99422.13;4385348;32;37925;-80
2022/08/28 04:28:37;;;;;;;;;;;;;;;25.74;51.59;99430.28;4386694;32;38483;-81
2022/08/28 04:31:04;;;;;;;;;;;;;;;25.77;51.89;99433.72;4384761;32;38519;-80
2022/08/28 04:33:33;;;;;;;;;;;;;;;25.77;51.85;99431.94;4384772;32;38390;-80
2022/08/28 04:36:07;;;;;;;;;;;;;;;25.73;51.91;99435.69;4385960;32;39329;-84
2022/08/28 04:38:36;;;;;;;;;;;;;;;25.75;51.53;99445.28;4386668;32;39274;-78
2022/08/28 04:41:11;;;;;;;;;;;;;;;25.62;52.39;99446.00;4383346;32;37971;-79
2022/08/28 04:43:43;;;;;;;;;;;;;;;25.86;51.37;99447.41;4383744;32;37502;-80
2022/08/28 04:46:11;;;;;;;;;;;;;;;25.82;51.56;99456.47;4385455;32;38223;-81
2022/08/28 04:48:39;;;;;;;;;;;;;;;25.85;51.02;99445.69;4388431;32;37981;-79
2022/08/28 04:51:08;;;;;;;;;;;;;;;25.84;50.95;99449.25;4377232;32;38363;-82
2022/08/28 04:53:38;;;;;;;;;;;;;;;25.89;51.44;99457.84;4381227;32;36286;-81
2022/08/28 04:56:05;;;;;;;;;;;;;;;25.85;51.95;99461.59;4376831;32;38717;-79
2022/08/28 04:58:34;;;;;;;;;;;;;;;25.97;50.51;99455.66;4384529;32;37966;-78
2022/08/28 05:01:06;;;;;;;;;;;;;;;25.87;51.48;99470.31;4384606;32;39059;-83
2022/08/28 05:03:34;;;;;;;;;;;;;;;25.96;51.12;99463.66;4385844;32;36895;-84
2022/08/28 05:06:02;;;;;;;;;;;;;;;26.01;50.63;99476.72;4382570;32;38746;-84
2022/08/28 05:08:30;;;;;;;;;;;;;;;26.04;51.49;99471.19;4370961;32;36861;-81
2022/08/28 05:11:07;;;;;;;;;;;;;;;26.07;51.81;99476.34;4386236;32;38243;-81
2022/08/28 05:13:34;;;;;;;;;;;;;;;26.04;51.74;99481.81;4384416;32;38147;-81
2022/08/28 05:16:02;;;;;;;;;;;;;;;26.08;52.16;99483.37;4383750;32;37686;-81
2022/08/28 05:18:29;;;;;;;;;;;;;;;26.13;52.01;99481.31;4377608;32;38548;-84
2022/08/28 05:20:57;;;;;;;;;;;;;;;26.14;52.30;99483.06;4383415;32;38715;-80
2022/08/28 05:23:25;;;;;;;;;;;;;;;26.24;52.32;99478.97;4395175;32;37061;-86
2022/08/28 05:25:52;;;;;;;;;;;;;;;26.13;52.19;99470.72;4384739;32;37504;-82
2022/08/28 05:28:20;;;;;;;;;;;;;;;26.15;51.84;99469.69;4370524;32;37748;-83
2022/08/28 05:30:47;;;;;;;;;;;;;;;26.30;51.57;99468.03;4378412;32;38730;-83
2022/08/28 05:33:14;;;;;;;;;;;;;;;26.33;51.86;99473.16;4382599;32;36578;-81
2022/08/28 05:35:42;;;;;;;;;;;;;;;26.34;52.06;99474.87;4368577;32;37986;-84
2022/08/28 05:38:11;;;;;;;;;;;;;;;26.31;51.65;99460.91;4375834;32;38991;-83
2022/08/28 05:40:42;;;;;;;;;;;;;;;26.41;52.01;99473.56;4376527;32;38311;-82
2022/08/28 05:43:10;;;;;;;;;;;;;;;26.46;52.00;99460.06;4383255;32;36614;-83
2022/08/28 05:45:38;;;;;;;;;;;;;;;26.41;51.96;99460.31;4376806;32;38072;-82
2022/08/28 05:48:05;;;;;;;;;;;;;;;26.51;51.03;99459.84;4381773;32;38912;-82
2022/08/28 05:50:33;;;;;;;;;;;;;;;26.57;52.10;99454.19;4229923;32;5087829;-81
2022/08/28 05:53:00;;;;;;;;;;;;;;;26.63;51.72;99464.47;4384337;32;20003;-82
2022/08/28 05:55:46;;;;;;;;;;;;;;;26.67;50.90;99460.69;4384609;32;37830;-83
2022/08/28 05:58:31;;;;;;;;;;;;;;;26.65;51.49;99473.22;4383162;32;38045;-83
2022/08/28 06:01:12;;;;;;;;;;;;;;;26.73;50.52;99470.09;4383580;32;38851;-81
2022/08/28 06:03:40;;;;;;;;;;;;;;;26.71;50.51;99472.88;4379704;32;36620;-81
2022/08/28 06:06:08;;;;;;;;;;;;;;;26.74;50.96;99471.81;4376474;32;38216;-82
2022/08/28 06:08:35;;;;;;;;;;;;;;;26.72;50.93;99469.25;4386090;32;38052;-82
2022/08/28 06:11:04;;;;;;;;;;;;;;;26.96;49.69;99474.09;4382954;32;39166;-81
2022/08/28 06:13:33;;;;;;;;;;;;;;;26.88;49.78;99475.41;4383697;32;37259;-81
2022/08/28 06:16:00;;;;;;;;;;;;;;;26.87;49.95;99476.38;4385359;32;38304;-82
2022/08/28 06:18:27;;;;;;;;;;;;;;;27.15;49.03;99477.44;4383013;32;37946;-83
2022/08/28 06:20:55;;;;;;;;;;;;;;;27.15;49.02;99482.75;4383950;32;38565;-81
2022/08/28 06:23:22;;;;;;;;;;;;;;;27.16;49.58;99481.84;4383087;32;36305;-81
2022/08/28 06:25:50;;;;;;;;;;;;;;;27.25;49.79;99489.28;4379141;32;39759;-80
2022/08/28 06:28:19;;;;;;;;;;;;;;;27.36;49.52;99483.31;4372211;32;39424;-82
2022/08/28 06:30:46;;;;;;;;;;;;;;;27.60;48.37;99483.69;4372542;32;38258;-82
2022/08/28 06:33:33;;;;;;;;;;;;;;;27.89;48.04;99489.03;4350429;32;37022;-84
2022/08/28 06:36:02;;;;;;;;;;;;;;;28.23;46.23;99483.34;4372378;32;38257;-79
2022/08/28 06:38:29;;;;;;;;;;;;;;;28.60;45.65;99491.72;4383719;32;39219;-80
2022/08/28 06:40:57;;;;;;;;;;;;;;;28.72;45.37;99490.94;4383598;32;39626;-80
2022/08/28 06:43:25;;;;;;;;;;;;;;;28.62;46.06;99500.47;4382590;32;36943;-82
2022/08/28 06:45:53;;;;;;;;;;;;;;;29.05;45.82;99497.72;4383529;32;38943;-82
2022/08/28 06:48:22;;;;;;;;;;;;;;;29.42;45.25;99495.28;4381102;32;38766;-80
2022/08/28 06:50:51;;;;;;;;;;;;;;;29.54;45.03;99493.56;4387450;32;38445;-80
2022/08/28 06:53:20;;;;;;;;;;;;;;;29.65;44.06;99502.59;4368171;32;36557;-81
2022/08/28 06:55:55;;;;;;;;;;;;;;;29.89;44.30;99504.50;4383854;32;38011;-81
2022/08/28 06:58:22;;;;;;;;;;;;;;;29.76;42.77;99503.66;4383499;32;39022;-81
2022/08/28 07:00:50;;;;;;;;;;;;;;;29.68;42.43;99508.69;4382341;32;38240;-80
2022/08/28 07:03:29;;;;;;;;;;;;;;;29.78;42.76;99512.41;4384903;32;37866;-80
2022/08/28 07:05:57;;;;;;;;;;;;;;;29.78;41.77;99512.41;4089783;32;10001293;-79
2022/08/28 07:08:25;;;;;;;;;;;;;;;29.99;42.24;99510.91;4385918;32;38242;-80
2022/08/28 07:10:52;;;;;;;;;;;;;;;30.12;42.98;99518.91;4384802;32;38396;-80
2022/08/28 07:13:20;;;;;;;;;;;;;;;30.18;43.93;99521.16;4383928;32;40325;-79
2022/08/28 07:15:47;;;;;;;;;;;;;;;29.97;42.94;99523.53;4383340;32;37178;-80
2022/08/28 07:18:16;;;;;;;;;;;;;;;29.46;44.84;99520.75;4383569;32;38865;-80
2022/08/28 07:20:44;;;;;;;;;;;;;;;29.39;45.02;99522.16;4386810;32;37986;-79
2022/08/28 07:23:11;;;;;;;;;;;;;;;29.46;45.05;99527.91;4383441;32;39972;-82
2022/08/28 07:25:39;;;;;;;;;;;;;;;29.72;44.48;99528.84;4381639;32;36335;-81
2022/08/28 07:28:07;;;;;;;;;;;;;;;29.73;45.99;99535.87;4381907;32;38080;-81
2022/08/28 07:30:34;;;;;;;;;;;;;;;30.09;44.72;99541.38;4385796;32;37019;-80
2022/08/28 07:33:01;;;;;;;;;;;;;;;30.12;43.98;99538.50;4370103;32;37547;-81
2022/08/28 07:35:29;;;;;;;;;;;;;;;30.12;43.57;99543.81;4374677;32;36612;-80
2022/08/28 07:37:56;;;;;;;;;;;;;;;30.23;44.02;99550.25;4381007;32;38693;-80
2022/08/28 07:40:24;;;;;;;;;;;;;;;30.31;43.38;99542.53;4381954;32;38851;-80
2022/08/28 07:45:37;;;;;;;;;;;;;;;30.87;41.48;99545.69;4384301;32;37355;-80
2022/08/28 07:48:07;;;;;;;;;;;;;;;30.68;42.73;99539.94;4383806;32;39290;-80
2022/08/28 07:50:37;;;;;;;;;;;;;;;30.45;43.24;99539.78;4388474;32;37867;-80
2022/08/28 07:53:08;;;;;;;;;;;;;;;30.74;42.33;99551.03;4383737;32;38839;-80
2022/08/28 07:55:35;;;;;;;;;;;;;;;29.94;45.28;99545.09;4384363;32;37310;-81
2022/08/28 07:58:02;;;;;;;;;;;;;;;30.08;45.80;99542.31;4381109;32;36827;-81
2022/08/28 08:00:30;;;;;;;;;;;;;;;30.25;43.72;99540.31;4396138;32;38243;-81
2022/08/28 08:02:57;;;;;;;;;;;;;;;30.54;42.52;99549.81;4382895;32;37810;-81
2022/08/28 08:05:24;;;;;;;;;;;;;;;30.29;43.39;99549.84;4383129;32;37306;-81
2022/08/28 08:07:52;;;;;;;;;;;;;;;30.31;43.75;99553.22;4378025;32;38109;-80
2022/08/28 08:10:19;;;;;;;;;;;;;;;30.80;43.08;99561.31;4383264;32;39329;-80
2022/08/28 08:12:47;;;;;;;;;;;;;;;30.72;42.06;99557.44;4385233;32;38708;-81
2022/08/28 08:15:14;;;;;;;;;;;;;;;30.79;42.53;99558.75;4384176;32;36458;-80
2022/08/28 08:17:41;;;;;;;;;;;;;;;31.22;43.03;99560.97;4391008;32;38363;-82
2022/08/28 08:20:09;;;;;;;;;;;;;;;31.45;40.37;99552.09;4397762;32;38350;-81
2022/08/28 08:22:36;;;;;;;;;;;;;;;31.34;41.29;99556.56;4384685;32;39211;-80
2022/08/28 08:25:04;;;;;;;;;;;;;;;31.47;41.57;99560.88;4385015;32;36726;-79
2022/08/28 08:27:31;;;;;;;;;;;;;;;31.89;39.85;99560.44;4386130;32;38342;-80
2022/08/28 08:29:58;;;;;;;;;;;;;;;31.79;39.21;99565.59;4382833;32;38065;-80
2022/08/28 08:32:26;;;;;;;;;;;;;;;31.70;40.14;99560.94;4384931;32;38606;-80
2022/08/28 08:34:54;;;;;;;;;;;;;;;32.20;39.04;99564.25;4386481;32;37895;-81
2022/08/28 08:37:21;;;;;;;;;;;;;;;31.80;40.85;99556.59;4376609;32;39114;-80
2022/08/28 08:39:49;;;;;;;;;;;;;;;32.13;40.02;99563.00;4384722;32;37876;-80
2022/08/28 08:42:24;;;;;;;;;;;;;;;32.00;40.30;99560.44;4384977;32;39014;-80
2022/08/28 08:44:53;;;;;;;;;;;;;;;32.39;38.98;99564.53;4379415;32;37253;-80
2022/08/28 08:47:38;;;;;;;;;;;;;;;32.08;40.02;99567.91;4385093;32;37977;-80
2022/08/28 08:50:08;;;;;;;;;;;;;;;32.69;36.58;99565.75;4385794;32;39383;-80
2022/08/28 08:52:46;;;;;;;;;;;;;;;33.14;35.67;99571.06;4384404;32;38338;-80
2022/08/28 08:55:36;;;;;;;;;;;;;;;32.64;39.22;99568.81;4386649;32;36569;-81
2022/08/28 08:58:03;;;;;;;;;;;;;;;32.48;37.44;99556.75;4383661;32;37758;-82
2022/08/28 09:00:32;;;;;;;;;;;;;;;32.81;36.28;99564.78;4384847;32;37901;-80
2022/08/28 09:03:06;;;;;;;;;;;;;;;32.70;37.57;99572.81;4378177;32;39571;-81
2022/08/28 09:05:46;;;;;;;;;;;;;;;32.89;36.64;99567.66;4362768;32;36557;-81
2022/08/28 09:08:19;;;;;;;;;;;;;;;32.85;36.15;99566.22;4379403;32;39217;-80
2022/08/28 09:10:50;;;;;;;;;;;;;;;33.30;34.74;99563.44;4382526;32;37520;-79
2022/08/28 09:13:31;;;;;;;;;;;;;;;33.19;35.10;99563.50;4393973;32;39421;-79
2022/08/28 09:15:59;;;;;;;;;;;;;;;33.11;36.10;99568.63;4375764;32;35899;-80
2022/08/28 09:18:27;;;;;;;;;;;;;;;32.99;35.92;99569.63;4375504;32;38280;-80
2022/08/28 09:20:55;;;;;;;;;;;;;;;33.12;35.94;99573.00;4389822;32;40116;-79
2022/08/28 09:23:23;;;;;;;;;;;;;;;32.98;36.83;99575.97;4378174;32;36750;-80
2022/08/28 09:25:58;;;;;;;;;;;;;;;32.96;36.10;99577.88;4382907;32;36448;-80
2022/08/28 09:28:31;;;;;;;;;;;;;;;32.99;36.21;99583.03;4376502;32;37917;-79
2022/08/28 09:31:09;;;;;;;;;;;;;;;33.17;34.95;99584.22;4387327;32;39579;-80
2022/08/28 09:33:39;;;;;;;;;;;;;;;33.01;34.36;99586.47;4384530;32;39548;-80
2022/08/28 09:36:27;;;;;;;;;;;;;;;32.85;35.08;99579.63;4373423;32;36583;-80
2022/08/28 09:39:06;;;;;;;;;;;;;;;33.60;32.87;99578.03;4385303;32;38348;-79
2022/08/28 09:44:24;;;;;;;;;;;;;;;33.64;32.28;99581.28;4379628;32;39476;-80
2022/08/28 09:46:52;;;;;;;;;;;;;;;33.15;35.94;99578.12;4394896;32;35754;-80
2022/08/28 09:49:27;;;;;;;;;;;;;;;33.56;34.06;99576.56;4377803;32;37896;-82
2022/08/28 09:51:58;;;;;;;;;;;;;;;33.56;35.01;99573.87;4379522;32;37847;-81
2022/08/28 09:54:31;;;;;;;;;;;;;;;33.39;34.11;99574.41;4378857;32;38749;-79
2022/08/28 09:57:02;;;;;;;;;;;;;;;33.04;35.39;99576.34;4379502;32;37051;-79
2022/08/28 09:59:29;;;;;;;;;;;;;;;33.53;33.03;99572.28;4383485;32;37590;-80
2022/08/28 10:02:09;;;;;;;;;;;;;;;33.70;33.72;99580.78;4395422;32;38474;-79
2022/08/28 10:04:42;;;;;;;;;;;;;;;33.22;35.53;99573.97;4380990;32;38499;-79
2022/08/28 10:07:23;;;;;;;;;;;;;;;33.34;34.48;99583.69;4365775;32;35345;-79
2022/08/28 10:10:01;;;;;;;;;;;;;;;33.60;33.83;99577.16;4372694;32;38924;-80
2022/08/28 10:12:44;;;;;;;;;;;;;;;33.78;31.90;99578.28;4369334;32;37985;-79
2022/08/28 10:15:17;;;;;;;;;;;;;;;33.59;32.74;99570.94;4395898;32;37901;-80
2022/08/28 10:18:00;;;;;;;;;;;;;;;33.85;32.04;99567.88;4382263;32;36531;-79
2022/08/28 10:20:32;;;;;;;;;;;;;;;33.92;30.48;99571.72;4372752;32;38432;-80
2022/08/28 10:22:59;;;;;;;;;;;;;;;34.03;31.14;99575.25;4380520;32;37907;-80
2022/08/28 10:25:32;;;;;;;;;;;;;;;33.87;33.12;99573.97;4382128;32;39797;-80
2022/08/28 10:28:00;;;;;;;;;;;;;;;34.15;31.64;99567.97;4382717;32;37118;-80
2022/08/28 10:30:27;;;;;;;;;;;;;;;34.09;32.11;99560.44;4379621;32;37758;-80
2022/08/28 10:33:30;;;;;;;;;;;;;;;34.43;31.19;99558.34;4380181;32;38287;-81
2022/08/28 10:36:00;;;;;;;;;;;;;;;34.40;29.76;99560.47;4332668;32;39595;-80
2022/08/28 10:38:40;;;;;;;;;;;;;;;33.95;31.60;99560.72;4372135;32;36123;-80
2022/08/28 10:41:09;;;;;;;;;;;;;;;33.98;31.52;99557.78;4382404;32;39584;-80
2022/08/28 10:43:47;;;;;;;;;;;;;;;33.87;32.59;99552.50;4375690;32;38589;-81
2022/08/28 10:46:14;;;;;;;;;;;;;;;33.91;31.95;99552.09;4374243;32;38054;-80
2022/08/28 10:49:08;;;;;;;;;;;;;;;33.80;33.15;99555.69;4390854;32;36647;-80
2022/08/28 10:51:45;;;;;;;;;;;;;;;34.36;31.04;99550.94;4381384;32;38674;-80
2022/08/28 10:54:31;;;;;;;;;;;;;;;34.35;31.31;99546.56;4379822;32;37653;-80
2022/08/28 10:57:05;;;;;;;;;;;;;;;34.44;30.91;99546.59;4379261;32;38297;-81
2022/08/28 10:59:32;;;;;;;;;;;;;;;34.60;30.15;99554.19;4379355;32;35519;-81
2022/08/28 11:02:08;;;;;;;;;;;;;;;33.38;35.20;99546.72;4374925;32;37685;-81
2022/08/28 11:04:35;;;;;;;;;;;;;;;33.84;31.86;99547.38;4374214;32;38053;-81
2022/08/28 11:07:03;;;;;;;;;;;;;;;34.46;30.11;99543.75;4385717;32;38409;-81
2022/08/28 11:09:34;;;;;;;;;;;;;;;34.32;33.53;99541.47;4391048;32;36753;-80
2022/08/28 11:12:02;;;;;;;;;;;;;;;34.50;30.35;99545.22;4382591;32;38380;-80
2022/08/28 11:14:32;;;;;;;;;;;;;;;34.12;33.82;99546.72;4367343;32;38424;-80
2022/08/28 11:17:03;;;;;;;;;;;;;;;34.28;31.83;99550.78;4383377;32;39394;-80
2022/08/28 11:19:44;;;;;;;;;;;;;;;34.56;29.80;99544.72;4374550;32;37783;-80
2022/08/28 11:22:33;;;;;;;;;;;;;;;34.53;29.24;99544.97;4390830;32;37929;-80
2022/08/28 11:25:03;;;;;;;;;;;;;;;34.41;30.16;99551.41;4387658;32;38434;-80
2022/08/28 11:27:36;;;;;;;;;;;;;;;34.43;30.39;99554.78;4377648;32;38801;-80
2022/08/28 11:30:03;;;;;;;;;;;;;;;34.50;30.74;99545.22;4379571;32;36787;-80
2022/08/28 11:32:30;;;;;;;;;;;;;;;34.71;29.56;99554.06;4383052;32;37922;-80
2022/08/28 11:35:00;;;;;;;;;;;;;;;34.49;30.69;99548.88;4385811;32;38201;-81
2022/08/28 11:37:46;;;;;;;;;;;;;;;34.74;29.23;99541.34;4384235;32;38994;-80
2022/08/28 11:40:29;;;;;;;;;;;;;;;34.59;29.62;99549.81;4378153;32;37695;-80
2022/08/28 11:43:15;;;;;;;;;;;;;;;34.57;29.04;99540.19;4379301;32;39076;-80
2022/08/28 11:45:46;;;;;;;;;;;;;;;34.62;29.35;99538.78;4386516;32;38181;-80
2022/08/28 11:48:20;;;;;;;;;;;;;;;33.71;32.38;99545.72;4383320;32;37877;-80
2022/08/28 11:50:54;;;;;;;;;;;;;;;34.49;29.16;99543.50;4377136;32;37093;-79
2022/08/28 11:53:31;;;;;;;;;;;;;;;34.38;30.01;99535.53;4385800;32;38373;-80
2022/08/28 11:56:17;;;;;;;;;;;;;;;34.62;28.68;99537.91;4382296;32;38330;-79
2022/08/28 11:59:16;;;;;;;;;;;;;;;34.49;27.94;99532.75;4381769;32;38966;-80
2022/08/28 12:01:44;;;;;;;;;;;;;;;34.28;30.10;99531.97;4383137;32;36518;-79
2022/08/28 12:04:16;;;;;;;;;;;;;;;34.40;31.07;99522.84;4388919;32;37779;-79
2022/08/28 12:06:43;;;;;;;;;;;;;;;34.46;30.73;99533.00;4394419;32;38602;-80
2022/08/28 12:09:11;;;;;;;;;;;;;;;34.36;31.04;99532.12;4392020;32;37577;-80
2022/08/28 12:11:39;;;;;;;;;;;;;;;34.37;30.56;99529.31;4374290;32;36192;-80
2022/08/28 12:14:07;;;;;;;;;;;;;;;34.48;29.47;99525.69;4370738;32;37765;-80
2022/08/28 12:16:53;;;;;;;;;;;;;;;34.35;28.25;99530.44;4381296;32;37937;-80
2022/08/28 12:19:38;;;;;;;;;;;;;;;34.33;28.59;99529.72;4376301;32;38348;-80
2022/08/28 12:22:22;;;;;;;;;;;;;;;34.36;29.36;99526.75;4382132;32;37471;-80
2022/08/28 12:24:57;;;;;;;;;;;;;;;34.43;29.09;99527.91;4375734;32;38916;-80
2022/08/28 12:27:24;;;;;;;;;;;;;;;34.43;31.41;99522.53;4397157;32;37721;-80
2022/08/28 12:29:51;;;;;;;;;;;;;;;34.37;31.56;99523.09;4380975;32;38576;-79
2022/08/28 12:32:24;;;;;;;;;;;;;;;34.33;31.70;99524.34;4354362;32;869957;-78
2022/08/28 12:34:52;;;;;;;;;;;;;;;34.34;31.31;99523.38;4365710;32;38079;-79
2022/08/28 12:37:23;;;;;;;;;;;;;;;34.35;31.22;99525.91;4381565;32;38245;-80
2022/08/28 12:39:51;;;;;;;;;;;;;;;34.03;33.34;99523.34;4390330;32;38998;-80
2022/08/28 12:42:19;;;;;;;;;;;;;;;34.29;32.63;99520.22;4376332;32;36769;-79
2022/08/28 12:44:46;;;;;;;;;;;;;;;34.37;32.27;99512.34;4396835;32;38447;-80
2022/08/28 12:47:15;;;;;;;;;;;;;;;34.47;31.93;99507.84;4370438;32;36974;-80
2022/08/28 12:49:46;;;;;;;;;;;;;;;34.29;33.42;99515.69;4376423;32;38542;-79
2022/08/28 12:52:16;;;;;;;;;;;;;;;33.53;35.75;99512.38;4370029;32;36770;-79
2022/08/28 12:54:43;;;;;;;;;;;;;;;33.98;33.36;99506.75;4375762;32;37687;-80
2022/08/28 12:57:12;;;;;;;;;;;;;;;34.31;32.10;99510.19;4396942;32;38970;-79
2022/08/28 12:59:49;;;;;;;;;;;;;;;34.16;33.29;99507.88;4363939;32;38474;-81
2022/08/28 13:02:16;;;;;;;;;;;;;;;34.20;33.74;99501.22;4367715;32;37177;-80
2022/08/28 13:04:48;;;;;;;;;;;;;;;34.26;33.49;99506.06;4375229;32;39042;-80
2022/08/28 13:07:16;;;;;;;;;;;;;;;33.85;35.15;99501.56;4380096;32;38241;-80
2022/08/28 13:09:48;;;;;;;;;;;;;;;34.04;34.06;99500.88;4396173;32;38039;-80